createdAt,value
2018-04-15T00:00:03.345Z,12.0
2018-04-15T00:05:02.616Z,12.0
2018-04-15T00:10:03.249Z,12.0
2018-04-15T00:15:02.856Z,11.8
2018-04-15T00:20:02.566Z,12.0
2018-04-15T00:25:03.207Z,12.0
2018-04-15T00:30:02.881Z,11.8
2018-04-15T00:35:02.693Z,11.8
2018-04-15T00:40:03.369Z,11.6
2018-04-15T00:45:02.945Z,11.3
2018-04-15T00:50:02.572Z,10.8
2018-04-15T00:55:03.086Z,10.6
2018-04-15T01:00:02.717Z,10.6
2018-04-15T01:05:03.324Z,10.5
2018-04-15T01:10:02.998Z,10.3
2018-04-15T01:15:02.582Z,10.1
2018-04-15T01:20:03.196Z,10.1
2018-04-15T01:25:02.827Z,10.1
2018-04-15T01:30:02.396Z,10.1
2018-04-15T01:35:02.998Z,10.1
2018-04-15T01:40:02.682Z,10.1
2018-04-15T01:45:03.264Z,10.1
2018-04-15T01:50:02.866Z,10.1
2018-04-15T01:55:02.572Z,10.1
2018-04-15T02:00:03.153Z,10.1
2018-04-15T02:05:02.761Z,10.1
2018-04-15T02:10:02.392Z,10.1
2018-04-15T02:15:03.026Z,10.1
2018-04-15T02:20:02.720Z,10.1
2018-04-15T02:25:03.282Z,10.3
2018-04-15T02:30:02.839Z,10.3
2018-04-15T02:35:02.462Z,10.3
2018-04-15T02:40:03.086Z,10.5
2018-04-15T02:45:02.654Z,10.5
2018-04-15T02:55:02.825Z,10.8
2018-04-15T03:00:03.648Z,10.8
2018-04-15T03:05:03.282Z,11.0
2018-04-15T03:10:02.960Z,11.0
2018-04-15T03:15:02.594Z,11.1
2018-04-15T03:20:03.201Z,11.1
2018-04-15T03:25:02.736Z,11.3
2018-04-15T03:30:03.304Z,11.3
2018-04-15T03:35:02.932Z,11.3
2018-04-15T03:40:02.727Z,11.3
2018-04-15T03:45:03.257Z,11.3
2018-04-15T03:50:02.851Z,11.3
2018-04-15T03:55:02.477Z,11.3
2018-04-15T04:00:03.296Z,11.3
2018-04-15T04:05:02.822Z,11.6
2018-04-15T04:10:02.529Z,11.3
2018-04-15T04:15:03.197Z,11.3
2018-04-15T04:20:02.816Z,11.3
2018-04-15T04:25:03.577Z,11.3
2018-04-15T04:30:02.747Z,11.3
2018-04-15T04:35:02.435Z,11.3
2018-04-15T04:40:02.995Z,11.3
2018-04-15T04:45:02.719Z,11.3
2018-04-15T04:50:02.577Z,11.3
2018-04-15T04:55:03.187Z,11.3
2018-04-15T05:00:02.795Z,11.3
2018-04-15T05:05:02.438Z,11.3
2018-04-15T05:10:03.059Z,11.3
2018-04-15T05:15:02.857Z,11.3
2018-04-15T05:20:02.458Z,11.3
2018-04-15T05:25:03.029Z,11.3
2018-04-15T05:30:02.593Z,11.3
2018-04-15T05:35:03.273Z,11.3
2018-04-15T05:40:02.820Z,11.3
2018-04-15T05:45:03.374Z,11.6
2018-04-15T05:50:02.872Z,11.6
2018-04-15T05:55:02.705Z,11.6
2018-04-15T06:00:03.452Z,11.6
2018-04-15T06:05:03.045Z,11.6
2018-04-15T06:10:02.680Z,11.6
2018-04-15T06:15:03.295Z,11.6
2018-04-15T06:20:02.926Z,11.6
2018-04-15T06:25:02.478Z,11.6
2018-04-15T06:30:03.188Z,11.6
2018-04-15T06:35:02.749Z,11.6
2018-04-15T06:40:02.588Z,11.6
2018-04-15T06:45:03.114Z,11.3
2018-04-15T06:50:02.717Z,11.3
2018-04-15T06:55:03.228Z,11.3
2018-04-15T07:00:02.867Z,11.6
2018-04-15T07:05:02.426Z,11.6
2018-04-15T07:10:03.046Z,11.6
2018-04-15T07:15:02.699Z,11.6
2018-04-15T07:20:03.269Z,11.6
2018-04-15T07:25:02.860Z,11.6
2018-04-15T07:30:02.495Z,11.6
2018-04-15T07:35:03.172Z,11.8
2018-04-15T07:40:02.739Z,11.8
2018-04-15T07:45:03.480Z,12.0
2018-04-15T07:50:03.161Z,12.1
2018-04-15T07:55:02.851Z,12.1
2018-04-15T08:00:03.350Z,12.3
2018-04-15T08:05:02.989Z,12.6
2018-04-15T08:10:02.717Z,12.8
2018-04-15T08:15:03.292Z,13.1
2018-04-15T08:20:02.955Z,13.1
2018-04-15T08:25:02.527Z,12.3
2018-04-15T08:30:03.080Z,12.5
2018-04-15T08:35:02.747Z,13.5
2018-04-15T08:40:02.499Z,13.1
2018-04-15T08:45:03.085Z,13.1
2018-04-15T08:50:02.634Z,13.8
2018-04-15T08:55:03.214Z,14.0
2018-04-15T09:00:02.846Z,14.3
2018-04-15T09:05:02.552Z,16.2
2018-04-15T09:10:03.226Z,17.3
2018-04-15T09:15:02.900Z,16.7
2018-04-15T09:20:02.575Z,16.2
2018-04-15T09:25:03.165Z,16.7
2018-04-15T09:30:02.727Z,17.0
2018-04-15T09:35:02.530Z,17.1
2018-04-15T09:40:03.129Z,17.1
2018-04-15T09:45:02.705Z,18.5
2018-04-15T09:50:02.406Z,17.7
2018-04-15T09:55:02.960Z,17.7
2018-04-15T10:00:02.643Z,17.5
2018-04-15T10:05:03.194Z,17.7
2018-04-15T10:10:02.881Z,18.7
2018-04-15T10:15:02.595Z,18.2
2018-04-15T10:20:03.211Z,17.7
2018-04-15T10:25:02.876Z,18.7
2018-04-15T10:30:02.609Z,18.6
2018-04-15T10:35:03.275Z,18.2
2018-04-15T10:40:02.895Z,19.0
2018-04-15T10:45:02.745Z,19.0
2018-04-15T10:50:03.339Z,19.7
2018-04-15T10:55:02.957Z,18.2
2018-04-15T11:00:02.780Z,19.5
2018-04-15T11:05:03.367Z,18.2
2018-04-15T11:10:03.097Z,18.7
2018-04-15T11:15:02.721Z,20.1
2018-04-15T11:20:03.427Z,20.6
2018-04-15T11:25:03.280Z,20.1
2018-04-15T11:30:02.930Z,20.7
2018-04-15T11:35:02.585Z,20.3
2018-04-15T11:40:03.212Z,20.8
2018-04-15T11:45:02.786Z,20.3
2018-04-15T11:50:02.414Z,20.3
2018-04-15T11:55:03.244Z,20.3
2018-04-15T12:00:02.853Z,20.7
2018-04-15T12:05:02.577Z,19.3
2018-04-15T12:10:03.195Z,20.6
2018-04-15T12:15:02.839Z,20.8
2018-04-15T12:20:02.608Z,20.8
2018-04-15T12:25:03.294Z,21.0
2018-04-15T12:30:02.939Z,20.8
2018-04-15T12:35:02.777Z,21.3
2018-04-15T12:40:02.442Z,20.2
2018-04-15T12:45:03.016Z,21.3
2018-04-15T12:50:02.590Z,21.6
2018-04-15T12:55:03.207Z,20.0
2018-04-15T13:00:02.777Z,19.7
2018-04-15T13:05:02.526Z,20.1
2018-04-15T13:10:03.432Z,19.7
2018-04-15T13:15:02.978Z,19.5
2018-04-15T13:20:02.565Z,20.0
2018-04-15T13:25:03.140Z,21.2
2018-04-15T13:30:02.755Z,19.7
2018-04-15T13:35:02.387Z,19.1
2018-04-15T13:40:03.067Z,19.1
2018-04-15T13:45:02.648Z,19.1
2018-04-15T13:50:03.246Z,18.8
2018-04-15T13:55:02.797Z,18.6
2018-04-15T14:00:03.372Z,18.5
2018-04-15T14:05:02.897Z,18.6
2018-04-15T14:10:02.574Z,18.5
2018-04-15T14:15:03.146Z,18.2
2018-04-15T14:20:02.751Z,18.2
2018-04-15T14:25:03.345Z,18.1
2018-04-15T14:30:02.995Z,18.1
2018-04-15T14:35:02.550Z,18.1
2018-04-15T14:40:03.184Z,18.1
2018-04-15T14:45:03.024Z,17.7
2018-04-15T14:50:02.878Z,17.7
2018-04-15T14:55:02.569Z,17.7
2018-04-15T15:00:03.269Z,17.8
2018-04-15T15:05:03.024Z,18.1
2018-04-15T15:10:02.744Z,18.1
2018-04-15T15:15:02.639Z,18.2
2018-04-15T15:20:03.287Z,18.2
2018-04-15T15:25:02.879Z,18.8
2018-04-15T15:30:02.718Z,19.2
2018-04-15T15:35:03.311Z,19.0
2018-04-15T15:40:03.142Z,18.8
2018-04-15T15:45:02.774Z,18.7
2018-04-15T15:50:02.430Z,19.0
2018-04-15T15:55:03.157Z,18.7
2018-04-15T16:00:02.725Z,19.0
2018-04-15T16:05:03.368Z,18.7
2018-04-15T16:10:03.066Z,18.6
2018-04-15T16:15:02.817Z,18.5
2018-04-15T16:20:02.446Z,18.5
2018-04-15T16:30:02.582Z,18.2
2018-04-15T16:35:03.289Z,18.2
2018-04-15T16:40:03.014Z,18.2
2018-04-15T16:45:02.642Z,18.2
2018-04-15T16:50:03.230Z,18.2
2018-04-15T16:55:02.894Z,18.2
2018-04-15T17:00:02.656Z,18.2
2018-04-15T17:05:02.760Z,18.1
2018-04-15T17:10:02.477Z,18.1
2018-04-15T17:15:03.177Z,18.1
2018-04-15T17:20:02.756Z,17.8
2018-04-15T17:25:03.375Z,17.7
2018-04-15T17:30:02.911Z,17.7
2018-04-15T17:35:02.634Z,17.7
2018-04-15T17:40:03.235Z,17.5
2018-04-15T17:45:02.794Z,17.5
2018-04-15T17:50:03.371Z,17.3
2018-04-15T17:55:03.185Z,17.3
2018-04-15T18:00:03.026Z,17.2
2018-04-15T18:05:02.673Z,17.1
2018-04-15T18:10:03.361Z,16.7
2018-04-15T18:15:02.951Z,16.7
2018-04-15T18:20:02.608Z,16.7
2018-04-15T18:25:03.337Z,16.3
2018-04-15T18:30:02.958Z,16.3
2018-04-15T18:35:02.560Z,16.3
2018-04-15T18:40:03.279Z,16.3
2018-04-15T18:45:02.854Z,16.6
2018-04-15T18:50:02.724Z,16.3
2018-04-15T18:55:02.779Z,16.2
2018-04-15T19:00:02.507Z,16.2
2018-04-15T19:05:03.159Z,15.8
2018-04-15T19:10:02.837Z,15.8
2018-04-15T19:15:02.467Z,15.5
2018-04-15T19:20:03.030Z,15.3
2018-04-15T19:25:02.680Z,15.3
2018-04-15T19:30:03.268Z,15.1
2018-04-15T19:35:02.898Z,15.1
2018-04-15T19:40:02.574Z,15.0
2018-04-15T19:45:03.223Z,15.0
2018-04-15T19:50:02.872Z,15.1
2018-04-15T19:55:02.546Z,15.0
2018-04-15T20:00:03.559Z,14.8
2018-04-15T20:05:03.334Z,14.8
2018-04-15T20:10:02.451Z,14.6
2018-04-15T20:15:03.124Z,14.5
2018-04-15T20:20:02.793Z,14.5
2018-04-15T20:25:03.376Z,14.5
2018-04-15T20:30:03.010Z,14.3
2018-04-15T20:35:02.787Z,14.3
2018-04-15T20:40:02.458Z,14.0
2018-04-15T20:45:03.047Z,13.6
2018-04-15T20:50:02.646Z,13.6
2018-04-15T20:55:03.256Z,13.6
2018-04-15T21:00:03.107Z,13.6
2018-04-15T21:05:02.730Z,13.8
2018-04-15T21:10:02.414Z,14.0
2018-04-15T21:15:03.151Z,14.0
2018-04-15T21:20:02.841Z,14.0
2018-04-15T21:25:02.501Z,14.0
2018-04-15T21:30:03.207Z,13.6
2018-04-15T21:35:02.745Z,13.5
2018-04-15T21:40:02.410Z,13.5
2018-04-15T21:45:03.014Z,13.5
2018-04-15T21:50:02.655Z,13.5
2018-04-15T21:55:03.295Z,13.5
2018-04-15T22:00:02.879Z,13.3
2018-04-15T22:05:02.454Z,13.1
2018-04-15T22:10:03.122Z,13.1
2018-04-15T22:15:02.815Z,13.1
2018-04-15T22:20:02.422Z,13.1
2018-04-15T22:25:02.971Z,13.1
2018-04-15T22:30:02.756Z,13.1
2018-04-15T22:35:03.343Z,13.1
2018-04-15T22:40:02.926Z,13.1
2018-04-15T22:45:02.596Z,12.8
2018-04-15T22:50:03.217Z,13.1
2018-04-15T22:55:02.742Z,13.1
2018-04-15T23:00:05.820Z,13.1
2018-04-15T23:05:03.058Z,13.1
2018-04-15T23:10:02.949Z,13.1
2018-04-15T23:15:02.495Z,13.1
2018-04-15T23:20:03.143Z,13.1
2018-04-15T23:25:02.785Z,12.8
2018-04-15T23:30:02.487Z,12.8
2018-04-15T23:35:03.073Z,12.5
2018-04-15T23:40:02.716Z,12.5
2018-04-15T23:45:03.351Z,12.3
2018-04-15T23:50:02.895Z,12.3
2018-04-15T23:55:02.539Z,12.3
